Time;durP1;ratioP1;P1;durP2;ratioP2;P2;SDS_P1;SDS_P2;PMS_P1;PMS_P2;Temp;Humidity;BMP_temperature;BMP_pressure;BME280_temperature;BME280_humidity;BME280_pressure;Samples;Min_cycle;Max_cycle;Signal;HPM_P1;HPM_P2
2022/04/22 00:01:21;;;;;;;16.63;11.82;;;12.90;62.40;;;;;;5097537;28;20445;-60
2022/04/22 00:03:47;;;;;;;14.00;11.07;;;12.90;63.30;;;;;;5097760;28;20051;-60
2022/04/22 00:06:14;;;;;;;16.45;13.23;;;12.90;62.70;;;;;;5097566;28;20020;-60
2022/04/22 00:08:40;;;;;;;16.85;12.48;;;12.80;61.40;;;;;;5097906;28;20107;-60
2022/04/22 00:13:50;;;;;;;;;;;12.70;63.20;;;;;;5098095;28;20085;-60
2022/04/22 00:16:21;;;;;;;15.52;11.13;;;12.70;62.00;;;;;;5097481;28;19908;-60
2022/04/22 00:18:46;;;;;;;15.73;11.80;;;12.70;62.20;;;;;;5097602;28;20123;-60
2022/04/22 00:21:12;;;;;;;15.82;11.85;;;12.70;62.30;;;;;;5097431;28;20051;-60
2022/04/22 00:23:38;;;;;;;13.32;10.35;;;12.70;63.30;;;;;;5097603;28;20099;-60
2022/04/22 00:26:04;;;;;;;15.98;11.45;;;12.70;62.60;;;;;;5097397;28;20020;-60
2022/04/22 00:28:29;;;;;;;14.77;12.32;;;12.60;62.80;;;;;;5097296;28;20388;-60
2022/04/22 00:30:55;;;;;;;14.48;11.00;;;12.60;62.50;;;;;;5097499;28;20035;-60
2022/04/22 00:33:21;;;;;;;15.68;11.45;;;12.60;63.10;;;;;;5097529;28;20032;-60
2022/04/22 00:35:47;;;;;;;15.82;11.48;;;12.60;63.20;;;;;;5097450;28;20092;-60
2022/04/22 00:38:13;;;;;;;17.02;12.38;;;12.50;63.40;;;;;;5099112;28;20035;-60
2022/04/22 00:40:39;;;;;;;16.90;11.65;;;12.50;63.80;;;;;;5100982;28;20034;-60
2022/04/22 00:43:22;;;;;;;14.35;12.18;;;12.50;63.00;;;;;;5101158;28;20044;-60
2022/04/22 00:45:49;;;;;;;15.70;11.27;;;12.50;62.10;;;;;;5100953;28;20074;-60
2022/04/22 00:48:18;;;;;;;15.40;12.20;;;12.50;64.20;;;;;;5101109;28;20016;-60
2022/04/22 00:50:45;;;;;;;15.45;10.50;;;12.50;63.90;;;;;;5099530;28;20032;-60
2022/04/22 00:53:12;;;;;;;14.60;11.05;;;12.50;63.10;;;;;;5100972;28;20028;-60
2022/04/22 00:55:41;;;;;;;14.43;11.25;;;12.50;63.50;;;;;;5100925;28;20480;-60
2022/04/22 00:58:07;;;;;;;16.02;11.70;;;12.50;63.50;;;;;;5100681;28;20058;-60
2022/04/22 01:00:33;;;;;;;14.38;11.43;;;12.40;63.60;;;;;;5100486;28;20032;-60
2022/04/22 01:02:59;;;;;;;13.98;11.20;;;12.40;63.80;;;;;;5100865;28;20097;-60
2022/04/22 01:10:56;;;;;;;17.02;12.38;;;12.40;62.70;;;;;;5100873;28;20410;-60
2022/04/22 01:13:23;;;;;;;14.88;11.57;;;12.30;64.80;;;;;;5100835;28;20020;-60
2022/04/22 01:15:49;;;;;;;15.13;11.48;;;12.40;63.80;;;;;;5100628;28;20024;-60
2022/04/22 01:18:15;;;;;;;15.02;11.23;;;12.30;63.60;;;;;;5100301;28;20039;-60
2022/04/22 01:20:40;;;;;;;16.15;12.40;;;12.30;64.80;;;;;;5100526;28;20028;-60
2022/04/22 01:23:06;;;;;;;15.38;10.88;;;12.30;63.80;;;;;;5100221;28;20052;-60
2022/04/22 01:25:32;;;;;;;15.82;11.52;;;12.30;64.20;;;;;;5099989;28;20024;-60
2022/04/22 01:27:59;;;;;;;16.02;11.75;;;12.20;65.50;;;;;;5099927;28;20048;-60
2022/04/22 01:30:26;;;;;;;14.65;12.15;;;12.30;63.80;;;;;;5100301;28;20478;-60
2022/04/22 01:32:54;;;;;;;14.90;12.15;;;12.20;64.10;;;;;;5100482;28;20528;-60
2022/04/22 01:35:21;;;;;;;17.02;13.23;;;12.20;63.90;;;;;;5099934;28;20031;-60
2022/04/22 01:37:47;;;;;;;14.55;11.60;;;12.20;63.60;;;;;;5100040;28;20027;-60
2022/04/22 01:40:13;;;;;;;15.90;12.10;;;12.20;64.50;;;;;;5099879;28;20032;-60
2022/04/22 01:42:39;;;;;;;17.63;12.23;;;12.20;64.90;;;;;;5099901;28;20434;-60
2022/04/22 01:45:07;;;;;;;14.40;11.90;;;12.20;65.70;;;;;;5099779;28;20024;-60
2022/04/22 01:47:33;;;;;;;15.50;12.93;;;12.10;65.80;;;;;;5100182;28;20561;-60
2022/04/22 01:49:59;;;;;;;17.45;13.15;;;12.20;64.70;;;;;;5099436;28;20031;-60
2022/04/22 01:52:26;;;;;;;17.67;12.88;;;12.10;64.40;;;;;;5099677;28;20032;-60
2022/04/22 01:54:54;;;;;;;16.02;12.82;;;12.10;64.60;;;;;;5099795;28;20035;-60
2022/04/22 01:57:23;;;;;;;17.85;13.43;;;12.10;65.30;;;;;;5099821;28;20028;-60
2022/04/22 01:59:49;;;;;;;16.65;12.15;;;12.10;64.80;;;;;;5099411;28;20122;-60
2022/04/22 02:02:18;;;;;;;19.45;14.45;;;12.10;65.90;;;;;;5099492;28;20357;-60
2022/04/22 02:04:45;;;;;;;15.32;11.95;;;12.10;65.60;;;;;;5099385;28;20050;-60
2022/04/22 02:07:11;;;;;;;15.60;12.45;;;12.10;65.20;;;;;;5099379;28;20024;-60
2022/04/22 02:09:37;;;;;;;17.02;12.80;;;12.10;64.00;;;;;;5098038;28;20062;-60
2022/04/22 02:12:05;;;;;;;18.83;14.10;;;12.10;65.90;;;;;;5099294;28;20536;-60
2022/04/22 02:14:31;;;;;;;14.45;12.05;;;12.00;66.10;;;;;;5099142;28;20032;-60
2022/04/22 02:16:56;;;;;;;14.50;12.68;;;12.00;66.10;;;;;;5099276;28;20020;-60
2022/04/22 02:19:22;;;;;;;15.55;12.95;;;12.00;65.30;;;;;;5099280;28;20039;-60
2022/04/22 02:21:49;;;;;;;17.35;13.30;;;12.00;64.20;;;;;;5099254;28;20024;-60
2022/04/22 02:24:15;;;;;;;17.25;13.18;;;12.00;66.00;;;;;;5099238;28;20035;-60
2022/04/22 02:29:26;;;;;;;17.65;13.43;;;12.00;65.30;;;;;;5099125;28;20043;-60
2022/04/22 02:31:53;;;;;;;16.13;14.23;;;12.00;64.60;;;;;;5098846;28;20569;-60
2022/04/22 02:34:20;;;;;;;16.40;13.35;;;12.00;65.10;;;;;;5098921;28;20031;-60
2022/04/22 02:36:46;;;;;;;16.65;13.80;;;11.90;65.80;;;;;;5098964;28;20035;-60
2022/04/22 02:39:12;;;;;;;20.02;15.18;;;11.90;64.60;;;;;;5098697;28;20058;-60
2022/04/22 02:47:07;;;;;;;19.38;14.68;;;11.90;66.50;;;;;;5099111;28;20039;-60
2022/04/22 02:49:32;;;;;;;17.77;14.43;;;11.90;64.50;;;;;;5098485;28;20036;-60
2022/04/22 02:51:58;;;;;;;19.08;15.57;;;11.80;65.90;;;;;;5098576;28;20141;-60
2022/04/22 02:54:24;;;;;;;19.92;14.77;;;11.80;65.60;;;;;;5098685;28;20024;-60
2022/04/22 02:56:51;;;;;;;17.30;13.35;;;11.80;67.20;;;;;;5098441;28;20028;-60
2022/04/22 02:59:20;;;;;;;15.80;13.45;;;11.80;66.00;;;;;;5098530;28;20039;-60
2022/04/22 03:01:46;;;;;;;18.23;14.13;;;11.80;65.70;;;;;;5097658;28;20020;-60
2022/04/22 03:04:12;;;;;;;18.15;14.05;;;11.80;67.10;;;;;;5098303;28;20035;-60
2022/04/22 03:06:38;;;;;;;15.50;12.75;;;11.80;67.10;;;;;;5098308;28;20472;-60
2022/04/22 03:09:05;;;;;;;16.98;14.13;;;11.80;65.80;;;;;;5098441;28;20055;-60
2022/04/22 03:11:30;;;;;;;19.13;15.10;;;11.80;67.20;;;;;;5098256;28;20399;-60
2022/04/22 03:13:56;;;;;;;19.35;14.32;;;11.70;65.70;;;;;;5098138;28;20025;-60
2022/04/22 03:16:26;;;;;;;18.08;14.32;;;11.70;67.20;;;;;;5098376;28;20019;-60
2022/04/22 03:18:52;;;;;;;17.67;14.18;;;11.70;65.80;;;;;;5098040;28;20093;-60
2022/04/22 03:21:18;;;;;;;17.92;14.02;;;11.70;66.30;;;;;;5098087;28;20024;-60
2022/04/22 03:23:44;;;;;;;19.27;15.32;;;11.70;66.60;;;;;;5097583;28;20043;-60
2022/04/22 03:26:09;;;;;;;18.17;13.60;;;11.70;66.30;;;;;;5098144;28;20054;-60
2022/04/22 03:28:35;;;;;;;17.50;13.80;;;11.70;67.10;;;;;;5097677;28;20419;-60
2022/04/22 03:31:01;;;;;;;18.17;14.07;;;11.70;67.50;;;;;;5098158;28;20102;-60
2022/04/22 03:33:27;;;;;;;16.52;14.48;;;11.70;67.00;;;;;;5097885;28;20109;-60
2022/04/22 03:35:53;;;;;;;16.65;14.07;;;11.70;67.70;;;;;;5097883;28;20046;-60
2022/04/22 03:38:20;;;;;;;18.45;15.30;;;11.70;66.90;;;;;;5098352;28;20055;-60
2022/04/22 03:40:49;;;;;;;19.73;14.52;;;11.70;67.30;;;;;;5097726;28;20364;-60
2022/04/22 03:43:20;;;;;;;17.98;14.75;;;11.70;67.10;;;;;;5098031;28;20023;-60
2022/04/22 03:45:45;;;;;;;18.67;15.15;;;11.70;66.90;;;;;;5097779;28;20503;-60
2022/04/22 03:48:15;;;;;;;17.33;14.80;;;11.70;66.20;;;;;;5097931;28;20028;-60
2022/04/22 03:50:41;;;;;;;18.00;15.23;;;11.70;65.50;;;;;;5097742;28;20056;-60
2022/04/22 03:53:11;;;;;;;20.73;15.90;;;11.70;66.80;;;;;;5097808;28;20088;-60
2022/04/22 03:55:41;;;;;;;21.90;16.00;;;11.70;67.40;;;;;;5097890;28;20039;-60
2022/04/22 03:58:11;;;;;;;20.27;15.35;;;11.70;66.30;;;;;;5097744;28;20032;-60
2022/04/22 04:00:46;;;;;;;17.50;15.25;;;11.80;67.90;;;;;;5097769;28;20107;-60
2022/04/22 04:03:23;;;;;;;18.92;15.15;;;11.80;67.70;;;;;;5097695;28;20047;-60
2022/04/22 04:05:51;;;;;;;20.77;16.58;;;11.80;66.70;;;;;;5097681;28;20044;-60
2022/04/22 04:08:21;;;;;;;19.23;15.68;;;11.90;69.20;;;;;;5097776;28;20046;-60
2022/04/22 04:16:19;;;;;;;19.17;16.60;;;12.00;67.90;;;;;;5102053;28;20112;-60
2022/04/22 04:18:45;;;;;;;18.55;15.88;;;12.00;67.40;;;;;;5101685;28;20123;-60
2022/04/22 04:23:59;;;;;;;;;;;12.00;67.50;;;;;;5102179;28;20115;-60
2022/04/22 04:26:25;;;;;;;18.77;14.85;;;12.00;66.60;;;;;;5101518;28;19908;-60
2022/04/22 04:28:52;;;;;;;23.05;16.88;;;12.00;67.90;;;;;;5100653;28;20059;-60
2022/04/22 04:31:19;;;;;;;20.42;15.77;;;12.00;67.90;;;;;;5099952;28;20031;-60
2022/04/22 04:33:45;;;;;;;18.88;16.65;;;12.00;68.10;;;;;;5101450;28;20055;-60
2022/04/22 04:36:11;;;;;;;19.70;16.40;;;12.00;67.20;;;;;;5101115;28;20464;-60
2022/04/22 04:38:41;;;;;;;18.48;15.50;;;12.10;67.60;;;;;;5101383;28;20027;-60
2022/04/22 04:41:08;;;;;;;18.95;16.17;;;12.00;66.40;;;;;;5100961;28;20030;-60
2022/04/22 04:43:38;;;;;;;20.67;15.07;;;12.10;66.80;;;;;;5101030;28;20024;-60
2022/04/22 04:46:04;;;;;;;20.45;16.85;;;12.10;67.50;;;;;;5101138;28;20035;-60
2022/04/22 04:48:30;;;;;;;17.45;15.18;;;12.10;66.70;;;;;;5101159;28;20028;-60
2022/04/22 04:50:56;;;;;;;20.38;15.88;;;12.10;66.80;;;;;;5101338;28;20027;-60
2022/04/22 04:53:25;;;;;;;19.52;15.70;;;12.10;67.40;;;;;;5101033;28;20028;-60
2022/04/22 04:55:52;;;;;;;21.27;16.42;;;12.10;67.20;;;;;;5100839;28;20063;-60
2022/04/22 04:58:21;;;;;;;19.13;17.10;;;12.10;67.90;;;;;;5100729;28;20028;-60
2022/04/22 05:00:48;;;;;;;19.00;15.30;;;12.10;66.30;;;;;;5100926;28;20020;-60
2022/04/22 05:03:14;;;;;;;19.52;16.85;;;12.00;67.80;;;;;;5100836;28;20027;-60
2022/04/22 05:05:40;;;;;;;21.90;17.75;;;12.00;67.20;;;;;;5100539;28;20041;-60
2022/04/22 05:08:07;;;;;;;20.52;16.17;;;12.00;67.30;;;;;;5100749;28;20024;-60
2022/04/22 05:10:34;;;;;;;20.10;16.85;;;12.10;66.60;;;;;;5100538;28;20024;-60
2022/04/22 05:13:01;;;;;;;21.77;17.13;;;12.10;68.40;;;;;;5100436;28;20498;-60
2022/04/22 05:15:27;;;;;;;19.77;16.10;;;12.10;67.00;;;;;;5100244;28;20454;-60
2022/04/22 05:17:54;;;;;;;23.20;17.30;;;12.00;67.80;;;;;;5100344;28;20055;-60
2022/04/22 05:20:25;;;;;;;21.85;15.70;;;12.00;67.70;;;;;;5100452;28;20079;-60
2022/04/22 05:22:52;;;;;;;21.10;16.67;;;12.00;66.20;;;;;;5099886;28;20025;-60
2022/04/22 05:25:18;;;;;;;18.35;15.95;;;12.00;68.50;;;;;;5099646;28;20468;-60
2022/04/22 05:27:44;;;;;;;21.48;17.25;;;12.00;67.40;;;;;;5100099;28;20040;-60
2022/04/22 05:32:56;;;;;;;20.13;16.65;;;12.00;68.30;;;;;;5100294;28;20522;-60
2022/04/22 05:35:23;;;;;;;22.13;17.35;;;12.00;67.50;;;;;;5099954;28;20028;-60
2022/04/22 05:37:51;;;;;;;19.80;16.90;;;12.00;68.50;;;;;;5099969;28;20092;-60
2022/04/22 05:40:19;;;;;;;19.50;17.00;;;12.10;67.80;;;;;;5099800;28;20609;-60
2022/04/22 05:42:46;;;;;;;21.30;17.98;;;12.10;67.80;;;;;;5100191;28;20012;-60
2022/04/22 05:45:13;;;;;;;19.10;16.58;;;12.10;68.30;;;;;;5100039;28;20024;-60
2022/04/22 05:47:39;;;;;;;20.80;17.08;;;12.10;68.50;;;;;;5100004;28;20031;-60
2022/04/22 05:50:06;;;;;;;20.67;18.25;;;12.10;67.50;;;;;;5099956;28;20024;-60
2022/04/22 05:52:34;;;;;;;21.85;17.83;;;12.10;67.60;;;;;;5094176;28;20031;-60
2022/04/22 05:55:04;;;;;;;21.50;19.10;;;12.20;67.20;;;;;;5086604;28;20032;-60
2022/04/22 05:57:31;;;;;;;20.85;16.80;;;12.20;68.00;;;;;;5079473;28;20028;-60
2022/04/22 05:59:57;;;;;;;21.75;17.73;;;12.20;68.30;;;;;;5079235;28;20036;-60
2022/04/22 06:02:23;;;;;;;21.30;17.73;;;12.30;68.30;;;;;;5079212;28;20099;-60
2022/04/22 06:04:48;;;;;;;22.08;17.67;;;12.30;67.90;;;;;;5079571;28;20071;-60
2022/04/22 06:07:14;;;;;;;23.23;19.48;;;12.30;68.40;;;;;;5079121;28;20012;-59
2022/04/22 06:12:24;;;;;;;26.67;18.95;;;12.40;68.10;;;;;;5078919;28;20059;-60
2022/04/22 06:14:50;;;;;;;19.60;17.33;;;12.40;66.50;;;;;;5077637;28;20028;-61
2022/04/22 06:17:15;;;;;;;21.80;18.15;;;12.50;67.10;;;;;;5078758;28;20035;-60
2022/04/22 06:19:41;;;;;;;24.92;19.63;;;12.50;67.60;;;;;;5078800;28;20033;-60
2022/04/22 06:22:07;;;;;;;23.40;18.63;;;12.50;67.70;;;;;;5079306;28;20357;-60
2022/04/22 06:24:33;;;;;;;22.90;18.75;;;12.60;67.00;;;;;;5078984;28;20075;-61
2022/04/22 06:26:58;;;;;;;24.80;20.40;;;12.60;68.00;;;;;;5078779;28;20562;-61
2022/04/22 06:29:24;;;;;;;23.75;19.33;;;12.60;67.90;;;;;;5078710;28;20028;-61
2022/04/22 06:31:51;;;;;;;22.27;19.05;;;12.70;68.40;;;;;;5078627;28;20028;-61
2022/04/22 06:34:17;;;;;;;23.90;19.27;;;12.70;68.70;;;;;;5079022;28;20027;-60
2022/04/22 06:36:43;;;;;;;26.50;20.58;;;12.80;68.70;;;;;;5078500;28;20369;-60
2022/04/22 06:39:09;;;;;;;25.65;19.63;;;12.90;67.70;;;;;;5077007;28;20039;-60
2022/04/22 06:45:46;;;;;;;22.48;19.23;;;12.90;67.60;;;;;;5078331;28;20035;-60
2022/04/22 06:47:12;;;;;;;24.73;19.73;;;13.00;68.00;;;;;;5078163;28;20029;-60
2022/04/22 06:49:38;;;;;;;25.23;20.40;;;13.10;67.60;;;;;;5078447;28;20036;-60
2022/04/22 06:52:06;;;;;;;24.70;19.02;;;13.10;67.50;;;;;;5078249;28;20025;-60
2022/04/22 06:54:33;;;;;;;25.25;19.27;;;13.20;67.20;;;;;;5078416;28;20108;-60
2022/04/22 06:57:00;;;;;;;24.67;19.65;;;13.20;67.90;;;;;;5078169;28;20481;-60
2022/04/22 06:59:26;;;;;;;23.33;18.85;;;13.20;67.50;;;;;;5078124;28;20060;-60
2022/04/22 07:01:53;;;;;;;22.92;19.30;;;13.30;68.00;;;;;;5078058;28;20456;-60
2022/04/22 07:04:19;;;;;;;21.98;17.85;;;13.40;67.00;;;;;;5078250;28;20025;-60
2022/04/22 07:06:45;;;;;;;23.20;18.83;;;13.40;66.90;;;;;;5078165;28;20465;-60
2022/04/22 07:09:12;;;;;;;24.60;19.48;;;13.40;66.70;;;;;;5078093;28;20020;-60
2022/04/22 07:11:40;;;;;;;23.35;17.95;;;13.50;66.60;;;;;;5077968;28;20031;-60
2022/04/22 07:14:07;;;;;;;23.45;19.55;;;13.50;66.90;;;;;;5077781;28;20084;-60
2022/04/22 07:16:33;;;;;;;23.38;19.52;;;13.50;65.90;;;;;;5078333;28;20345;-60
2022/04/22 07:18:59;;;;;;;25.95;19.77;;;13.50;66.40;;;;;;5077811;28;20085;-60
2022/04/22 07:21:26;;;;;;;22.30;19.35;;;13.60;66.20;;;;;;5078093;28;20017;-60
2022/04/22 07:23:58;;;;;;;24.13;20.05;;;13.70;67.10;;;;;;5077991;28;20464;-60
2022/04/22 07:26:25;;;;;;;22.15;18.42;;;13.70;66.60;;;;;;5077994;28;20051;-60
2022/04/22 07:28:52;;;;;;;22.35;18.73;;;13.80;66.30;;;;;;5077471;28;20051;-60
2022/04/22 07:31:19;;;;;;;21.10;17.75;;;13.90;65.90;;;;;;5077670;28;20512;-60
2022/04/22 07:33:45;;;;;;;24.52;18.77;;;13.90;66.30;;;;;;5077914;28;20066;-60
2022/04/22 07:36:11;;;;;;;22.23;18.20;;;13.90;66.10;;;;;;5077903;28;20024;-60
2022/04/22 07:38:37;;;;;;;22.73;18.42;;;14.00;65.80;;;;;;5076549;28;20024;-60
2022/04/22 07:41:06;;;;;;;23.13;18.92;;;14.00;66.00;;;;;;5077513;28;20060;-60
2022/04/22 07:49:02;;;;;;;21.23;16.85;;;14.20;66.00;;;;;;5082349;28;20039;-60
2022/04/22 07:51:28;;;;;;;21.73;17.23;;;14.30;66.40;;;;;;5082268;28;20017;-60
2022/04/22 07:53:57;;;;;;;18.63;15.93;;;14.30;66.30;;;;;;5083674;28;20107;-60
2022/04/22 07:56:24;;;;;;;19.85;17.75;;;14.50;66.10;;;;;;5083918;28;20051;-60
2022/04/22 07:58:50;;;;;;;22.27;17.20;;;14.60;65.70;;;;;;5083881;28;20028;-60
2022/04/22 08:01:16;;;;;;;22.67;16.90;;;14.70;65.60;;;;;;5083617;28;20507;-60
2022/04/22 08:03:41;;;;;;;23.17;17.17;;;14.70;65.00;;;;;;5084126;28;20033;-60
2022/04/22 08:06:07;;;;;;;20.40;15.60;;;14.80;65.10;;;;;;5082885;28;20025;-60
2022/04/22 08:08:33;;;;;;;20.58;16.98;;;14.80;65.30;;;;;;5082663;28;20519;-60
2022/04/22 08:10:59;;;;;;;22.30;17.38;;;14.80;65.30;;;;;;5083340;28;20032;-60
2022/04/22 08:13:28;;;;;;;21.25;16.48;;;14.90;65.10;;;;;;5083479;28;20036;-60
2022/04/22 08:15:54;;;;;;;22.02;17.00;;;15.00;64.80;;;;;;5083383;28;20401;-60
2022/04/22 08:18:20;;;;;;;19.65;16.42;;;15.10;64.20;;;;;;5083592;28;20052;-60
2022/04/22 08:20:46;;;;;;;20.65;17.30;;;15.20;64.30;;;;;;5083348;28;20051;-60
2022/04/22 08:23:11;;;;;;;20.00;15.75;;;15.30;64.20;;;;;;5083842;28;20032;-60
2022/04/22 08:25:37;;;;;;;21.55;16.52;;;15.40;63.90;;;;;;5083988;28;20017;-60
2022/04/22 08:28:04;;;;;;;17.80;15.15;;;15.50;63.70;;;;;;5083807;28;20557;-60
2022/04/22 08:30:30;;;;;;;19.92;15.38;;;15.60;62.90;;;;;;5083798;28;20174;-60
2022/04/22 08:32:56;;;;;;;19.67;15.00;;;15.60;63.50;;;;;;5083901;28;20063;-60
2022/04/22 08:35:22;;;;;;;18.05;14.00;;;15.70;63.30;;;;;;5083808;28;20392;-60
2022/04/22 08:37:48;;;;;;;19.00;14.13;;;15.80;63.40;;;;;;5083193;28;20052;-60
2022/04/22 08:40:14;;;;;;;19.35;14.18;;;15.90;62.80;;;;;;5083705;28;20040;-61
2022/04/22 08:42:42;;;;;;;17.30;14.38;;;15.90;62.30;;;;;;5084045;28;20050;-60
2022/04/22 08:45:09;;;;;;;16.85;13.85;;;16.00;63.00;;;;;;5083736;28;20038;-60
2022/04/22 08:50:27;;;;;;;16.00;13.32;;;16.10;62.70;;;;;;5083874;28;20031;-60
2022/04/22 08:53:02;;;;;;;17.35;13.55;;;16.20;62.70;;;;;;5083659;28;20037;-60
2022/04/22 08:55:30;;;;;;;15.32;12.93;;;16.30;62.50;;;;;;5084104;28;20020;-60
2022/04/22 08:57:56;;;;;;;18.55;13.63;;;16.50;63.10;;;;;;5082036;28;20032;-60
2022/04/22 09:00:22;;;;;;;19.42;12.30;;;16.70;62.90;;;;;;5080046;28;20108;-60
2022/04/22 09:02:54;;;;;;;17.25;13.60;;;16.90;62.50;;;;;;5080474;28;20081;-60
2022/04/22 09:05:20;;;;;;;17.30;12.13;;;17.10;61.60;;;;;;5080127;28;20028;-60
2022/04/22 09:07:46;;;;;;;14.82;12.38;;;17.20;60.70;;;;;;5078865;28;20412;-60
2022/04/22 09:10:12;;;;;;;16.88;13.00;;;17.30;60.60;;;;;;5080754;28;20032;-60
2022/04/22 09:12:43;;;;;;;14.90;13.07;;;17.40;60.20;;;;;;5080152;28;20047;-60
2022/04/22 09:15:10;;;;;;;14.57;11.80;;;17.40;58.50;;;;;;5080198;28;20032;-60
2022/04/22 09:17:36;;;;;;;15.57;12.30;;;17.50;60.00;;;;;;5080375;28;20056;-60
2022/04/22 09:20:04;;;;;;;13.23;10.48;;;17.70;60.30;;;;;;5079593;28;20032;-60
2022/04/22 09:22:36;;;;;;;13.15;10.32;;;18.00;59.80;;;;;;5079942;28;20020;-60
2022/04/22 09:25:05;;;;;;;13.13;10.32;;;18.20;60.30;;;;;;5080141;28;20044;-61
2022/04/22 09:27:41;;;;;;;12.02;10.07;;;18.60;60.20;;;;;;5079764;28;20036;-61
2022/04/22 09:30:09;;;;;;;14.02;10.35;;;19.00;58.00;;;;;;5079900;28;20111;-60
2022/04/22 09:32:39;;;;;;;13.52;10.50;;;19.30;56.90;;;;;;5079793;28;20500;-61
2022/04/22 09:35:09;;;;;;;13.27;10.48;;;19.70;57.30;;;;;;5079864;28;20564;-60
2022/04/22 09:43:39;;;;;;;11.77;9.60;;;20.90;52.90;;;;;;5079833;28;20387;-61
2022/04/22 09:46:06;;;;;;;10.67;8.63;;;21.20;53.20;;;;;;5079607;28;20024;-60
2022/04/22 09:48:44;;;;;;;11.15;7.45;;;21.50;51.90;;;;;;5079709;28;20027;-60
2022/04/22 09:51:30;;;;;;;10.18;6.78;;;21.80;52.10;;;;;;5079670;28;20024;-59
2022/04/22 09:54:01;;;;;;;11.13;7.03;;;22.10;51.30;;;;;;5077984;28;20036;-59
2022/04/22 09:56:28;;;;;;;13.05;7.80;;;22.50;51.00;;;;;;5079580;28;20025;-59
2022/04/22 09:58:54;;;;;;;12.20;8.52;;;22.80;50.50;;;;;;5079400;28;20028;-59
2022/04/22 10:01:20;;;;;;;11.35;7.97;;;23.00;49.20;;;;;;5079113;28;20496;-59
2022/04/22 10:03:46;;;;;;;10.10;7.05;;;23.20;50.70;;;;;;5079040;28;20024;-59
2022/04/22 10:06:12;;;;;;;9.18;6.45;;;23.50;48.60;;;;;;5079121;28;20028;-59
2022/04/22 10:08:39;;;;;;;7.43;5.35;;;23.60;46.30;;;;;;5079344;28;20028;-59
2022/04/22 10:11:10;;;;;;;6.78;4.85;;;23.80;45.00;;;;;;5078915;28;20028;-59
2022/04/22 10:13:46;;;;;;;9.82;5.22;;;24.00;49.50;;;;;;5079018;28;20055;-59
2022/04/22 10:16:13;;;;;;;7.82;5.60;;;24.40;46.90;;;;;;5079478;28;20027;-59
2022/04/22 10:18:43;;;;;;;7.30;5.30;;;24.60;46.50;;;;;;5078713;28;20032;-59
2022/04/22 10:21:09;;;;;;;8.65;5.18;;;24.70;46.80;;;;;;5078784;28;20024;-59
2022/04/22 10:23:36;;;;;;;8.85;5.82;;;24.70;44.60;;;;;;5079012;28;20016;-59
2022/04/22 10:26:03;;;;;;;8.40;6.85;;;24.90;44.60;;;;;;5078754;28;20392;-59
2022/04/22 10:28:30;;;;;;;10.18;7.00;;;24.90;44.20;;;;;;5078704;28;20032;-59
2022/04/22 10:31:00;;;;;;;9.00;5.30;;;24.90;46.00;;;;;;5078925;28;20104;-60
2022/04/22 10:33:27;;;;;;;8.38;5.20;;;25.00;44.30;;;;;;5078672;28;20020;-60
2022/04/22 10:35:59;;;;;;;6.97;4.38;;;25.20;46.10;;;;;;5078973;28;20491;-60
2022/04/22 10:38:37;;;;;;;7.35;4.32;;;25.50;45.80;;;;;;5078607;28;20032;-60
2022/04/22 10:41:11;;;;;;;7.75;4.93;;;25.70;45.40;;;;;;5078196;28;20504;-60
2022/04/22 10:43:38;;;;;;;7.15;4.00;;;26.00;43.80;;;;;;5078640;28;20020;-60
2022/04/22 10:49:06;;;;;;;;;;;26.00;41.10;;;;;;5079137;28;20054;-59
2022/04/22 10:51:52;;;;;;;;;;;25.80;44.80;;;;;;5078883;28;19908;-59
2022/04/22 10:54:20;;;;;;;7.15;4.25;;;25.50;39.30;;;;;;5078745;28;19904;-59
2022/04/22 10:56:46;;;;;;;7.75;4.35;;;25.30;42.40;;;;;;5078207;28;20055;-59
2022/04/22 10:59:15;;;;;;;7.40;4.65;;;25.30;42.60;;;;;;5078480;28;20028;-59
2022/04/22 11:01:42;;;;;;;6.18;4.00;;;25.20;41.50;;;;;;5078322;28;20029;-59
2022/04/22 11:04:18;;;;;;;7.85;4.20;;;25.00;42.50;;;;;;5077888;28;20020;-60
2022/04/22 11:06:44;;;;;;;5.50;3.70;;;24.80;40.50;;;;;;5078257;28;20025;-60
2022/04/22 11:09:10;;;;;;;5.88;3.60;;;24.60;40.90;;;;;;5078175;28;20016;-60
2022/04/22 11:11:42;;;;;;;8.15;4.40;;;24.40;42.50;;;;;;5078034;28;20032;-60
2022/04/22 11:14:19;;;;;;;8.85;4.15;;;24.30;41.50;;;;;;5077807;28;20500;-59
2022/04/22 11:16:45;;;;;;;6.18;4.15;;;24.60;43.90;;;;;;5077844;28;20025;-59
2022/04/22 11:19:17;;;;;;;8.20;4.80;;;25.00;39.30;;;;;;5077787;28;20020;-60
2022/04/22 11:21:44;;;;;;;8.07;4.90;;;25.50;42.90;;;;;;5077255;28;20044;-60
2022/04/22 11:24:19;;;;;;;8.70;5.88;;;26.00;41.50;;;;;;5077924;28;20044;-60
2022/04/22 11:26:45;;;;;;;8.10;5.80;;;26.70;38.30;;;;;;5077796;28;20035;-60
2022/04/22 11:29:13;;;;;;;9.80;7.00;;;27.30;40.80;;;;;;5078105;28;20025;-59
2022/04/22 11:31:39;;;;;;;6.15;4.55;;;27.70;38.70;;;;;;5077731;28;20028;-60
2022/04/22 11:34:17;;;;;;;7.22;5.20;;;27.90;40.40;;;;;;5076310;28;20108;-59
2022/04/22 11:36:47;;;;;;;6.72;4.60;;;28.40;39.40;;;;;;5078140;28;20025;-60
2022/04/22 11:39:22;;;;;;;7.68;5.50;;;29.00;39.30;;;;;;5078047;28;20031;-60
2022/04/22 11:41:57;;;;;;;9.75;6.90;;;29.60;39.80;;;;;;5077676;28;20048;-59
2022/04/22 11:44:27;;;;;;;8.10;5.50;;;29.80;36.60;;;;;;5077463;28;20495;-59
2022/04/22 11:46:53;;;;;;;8.02;5.20;;;29.50;38.00;;;;;;5077562;28;20028;-59
2022/04/22 11:49:28;;;;;;;11.45;5.80;;;29.30;36.60;;;;;;5077781;28;20027;-59
2022/04/22 11:51:55;;;;;;;9.02;5.68;;;28.60;36.10;;;;;;5077753;28;20074;-59
2022/04/22 11:54:25;;;;;;;9.05;5.55;;;28.10;36.70;;;;;;5077709;28;20033;-59
2022/04/22 11:56:54;;;;;;;7.72;5.80;;;27.60;37.40;;;;;;5077572;28;20052;-59
2022/04/22 11:59:22;;;;;;;7.75;5.10;;;27.20;34.80;;;;;;5077434;28;20076;-59
2022/04/22 12:10:04;;;;;;;5.30;3.53;;;28.80;35.60;;;;;;5077327;28;20082;-58
2022/04/22 12:12:34;;;;;;;6.40;4.20;;;29.20;35.70;;;;;;5077523;28;20071;-58
2022/04/22 12:15:01;;;;;;;7.18;4.05;;;29.30;35.90;;;;;;5077533;28;20032;-58
2022/04/22 12:17:27;;;;;;;6.57;3.90;;;29.40;35.00;;;;;;5077519;28;20050;-59
2022/04/22 12:19:53;;;;;;;4.88;4.03;;;29.50;34.70;;;;;;5077280;28;20120;-59
2022/04/22 12:22:23;;;;;;;5.05;3.50;;;29.80;33.90;;;;;;5077484;28;20016;-59
2022/04/22 12:25:08;;;;;;;6.18;3.60;;;30.40;35.60;;;;;;5077343;28;20024;-58
2022/04/22 12:27:34;;;;;;;6.55;3.55;;;30.20;33.20;;;;;;5077295;28;20119;-59
2022/04/22 12:30:02;;;;;;;5.93;3.85;;;29.80;33.60;;;;;;5077163;28;20364;-58
2022/04/22 12:32:28;;;;;;;5.18;3.83;;;29.90;33.10;;;;;;5077875;28;20020;-58
2022/04/22 12:35:18;;;;;;;4.82;3.50;;;29.90;31.10;;;;;;5081086;28;20103;-58
2022/04/22 12:37:53;;;;;;;6.43;3.40;;;30.10;33.30;;;;;;5080899;28;20031;-58
2022/04/22 12:40:22;;;;;;;6.10;3.35;;;30.10;30.70;;;;;;5081101;28;20029;-58
2022/04/22 12:42:51;;;;;;;6.57;3.63;;;30.10;32.30;;;;;;5080743;28;20495;-57
2022/04/22 12:53:48;;;;;;;7.93;3.30;;;28.50;33.20;;;;;;5081072;28;20058;-59
2022/04/22 12:56:14;;;;;;;3.75;3.03;;;28.50;33.20;;;;;;5080962;28;20054;-59
2022/04/22 12:58:52;;;;;;;5.70;3.40;;;28.20;31.50;;;;;;5080756;28;20021;-59
2022/04/22 13:01:26;;;;;;;4.78;3.25;;;28.00;32.30;;;;;;5080363;28;20024;-58
2022/04/22 13:03:52;;;;;;;4.93;3.40;;;27.80;32.50;;;;;;5080514;28;20028;-57
2022/04/22 13:06:40;;;;;;;6.72;3.20;;;27.40;32.30;;;;;;5079073;28;20032;-57
2022/04/22 13:09:07;;;;;;;3.90;3.10;;;27.00;33.70;;;;;;5080504;28;20020;-57
2022/04/22 13:11:36;;;;;;;4.80;3.03;;;27.00;33.70;;;;;;5080410;28;20089;-57
2022/04/22 13:14:03;;;;;;;4.60;3.15;;;27.10;33.00;;;;;;5080242;28;20111;-58
2022/04/22 13:16:29;;;;;;;6.63;3.60;;;27.00;33.90;;;;;;5080179;28;20024;-58
2022/04/22 13:18:59;;;;;;;6.05;3.40;;;27.00;33.70;;;;;;5079939;28;20400;-59
2022/04/22 13:21:25;;;;;;;4.55;3.45;;;26.60;34.20;;;;;;5080459;28;20028;-60
2022/04/22 13:23:51;;;;;;;5.07;3.53;;;26.40;34.10;;;;;;5080100;28;20012;-61
2022/04/22 13:26:17;;;;;;;10.52;4.10;;;26.20;34.50;;;;;;5080179;28;20025;-61
2022/04/22 13:28:43;;;;;;;6.88;3.97;;;25.70;35.10;;;;;;5078491;28;20036;-61
2022/04/22 13:31:09;;;;;;;9.48;3.30;;;25.50;35.90;;;;;;5080101;28;20036;-61
2022/04/22 13:33:35;;;;;;;6.13;4.10;;;25.70;36.30;;;;;;5080049;28;20017;-60
2022/04/22 13:36:05;;;;;;;5.70;3.80;;;25.50;35.70;;;;;;5079981;28;20392;-60
2022/04/22 13:38:32;;;;;;;5.82;3.72;;;25.30;36.60;;;;;;5079800;28;20028;-60
2022/04/22 13:41:01;;;;;;;7.05;3.83;;;25.30;36.50;;;;;;5079812;28;20036;-60
2022/04/22 13:43:30;;;;;;;5.68;3.90;;;25.40;37.40;;;;;;5079691;28;20016;-60